Sand Springs, MT

2:52 PM MST on December 07, 2019 (GMT -0700)
Union Creek, Montana | | Change Station
Active Advisory: Winter Weather Advisory

Elev 2910 ft 47.26 °N, 107.56 °W | Updated 6 minutes ago

Partly Cloudy
Partly Cloudy
46.3 °F
Feels Like 46 °F
N
2
Wind Variable Wind from SW
Gusts 2.0 mph

Today
High -- | Low -- °F
--% Chance of Precip.
Yesterday
High -- | Low -- °F
Precip. -- in
Pressure 29.68 in
Visibility 10.0 miles
Clouds Few 10000 ft
Windchill 46 °F
Dew Point 32 °F
Humidity 58%
Rainfall 0.00 in
Snow Depth Not available.
7:41 AM 4:20 PM
Waxing Gibbous, 82% visible
METAR KGGW 072053Z AUTO 26004KT 10SM FEW100 08/M01 A2962 RMK AO2 SLP048 T00831006 56015
Pressure 29.68 in
Visibility 10.0 miles
Clouds Few 10000 ft
Windchill 46 °F
Dew Point 32 °F
Humidity 58%
Rainfall 0.00 in
Snow Depth Not available.
7:41 AM 4:20 PM
Waxing Gibbous, 82% visible
METAR KGGW 072053Z AUTO 26004KT 10SM FEW100 08/M01 A2962 RMK AO2 SLP048 T00831006 56015

Get Your Daily Forecast Email!

Thanks for signing up!

Be on the lookout for a verification email in your inbox.

You'll start receiving severe weather alerts in your inbox..

×

10-Day Weather Forecast

Almanac

Astronomy

Dec. 07, 2019 Rise Set
Actual Time
Civil Twilight
Nautical Twilight
Astronomical Twilight
Moon
Length of Visible Light
Length of Day
Tomorrow will be .
, % of the Moon is Illuminated

Today's Extremes

State Highs State Lows

Community

WunderPhotos

Category 6

Welcome to Category 6. This is the collective home for Weather Underground's featured writeups by Dr. Jeff Masters (right), Bob Henson (left), Chris Burt, and other regular contributors.

Nearby

Air Quality

  Air Quality AQ Index Pollutant
Not available.

Snow Depth

Station Depth Elevation

Earthquake Activity

City Distance Mag. Time & Date
Minimum magnitude displayed is 2.5.

Coastal Water Temperatures

Place Temperature

Stations

Nearby Weather Stations

Station Location Temp. Windchill Dew Point Humidity Wind Precip. Elev Updated Type
                   

Watches & Warnings

Winter Weather Advisory
Issued: 1:57 PM MST Dec. 7, 2019 – National Weather Service

... Winter Weather Advisory remains in effect from 11 PM this
evening to 11 PM MST Sunday...

* what... snow expected. Total snow accumulations of 2 to 5 inches.
Isolated amounts near 6 inches in the Little Rocky Mountains.

* Where... near and north of Highway 200.

* When... from 11 PM this evening to 11 PM MST Sunday.

* Impacts... plan on slippery Road conditions.

* Additional details... brief periods of freezing drizzle are
possible tonight.

Precautionary/preparedness actions...

Slow down and use caution while traveling.

The latest Road conditions for the state you are calling from can
be obtained by calling 5 1 1.